sensor_id;sensor_type;location;lat;lon;timestamp;temperature;humidity
39655;DHT22;25336;59.944;11.010;2022-10-16T00:00:43;13.80;73.90
39655;DHT22;25336;59.944;11.010;2022-10-16T00:03:09;12.70;73.20
39655;DHT22;25336;59.944;11.010;2022-10-16T00:05:41;12.60;73.20
39655;DHT22;25336;59.944;11.010;2022-10-16T00:08:08;12.60;73.20
39655;DHT22;25336;59.944;11.010;2022-10-16T00:10:34;12.60;73.20
39655;DHT22;25336;59.944;11.010;2022-10-16T00:13:00;12.60;73.20
39655;DHT22;25336;59.944;11.010;2022-10-16T00:15:26;12.60;73.20
39655;DHT22;25336;59.944;11.010;2022-10-16T00:17:51;12.50;72.80
39655;DHT22;25336;59.944;11.010;2022-10-16T00:20:17;12.50;72.70
39655;DHT22;25336;59.944;11.010;2022-10-16T00:22:43;12.40;72.60
39655;DHT22;25336;59.944;11.010;2022-10-16T00:25:08;12.30;72.60
39655;DHT22;25336;59.944;11.010;2022-10-16T00:27:34;12.30;72.50
39655;DHT22;25336;59.944;11.010;2022-10-16T00:30:00;12.90;73.00
39655;DHT22;25336;59.944;11.010;2022-10-16T00:32:26;12.30;72.60
39655;DHT22;25336;59.944;11.010;2022-10-16T00:34:52;12.20;72.70
39655;DHT22;25336;59.944;11.010;2022-10-16T00:37:20;12.10;72.80
39655;DHT22;25336;59.944;11.010;2022-10-16T00:39:45;12.10;72.90
39655;DHT22;25336;59.944;11.010;2022-10-16T00:42:18;12.00;72.80
39655;DHT22;25336;59.944;11.010;2022-10-16T00:44:51;12.10;72.70
39655;DHT22;25336;59.944;11.010;2022-10-16T00:47:32;12.00;72.60
39655;DHT22;25336;59.944;11.010;2022-10-16T00:52:50;12.00;72.40
39655;DHT22;25336;59.944;11.010;2022-10-16T00:55:17;12.10;72.40
39655;DHT22;25336;59.944;11.010;2022-10-16T00:57:44;11.90;72.30
39655;DHT22;25336;59.944;11.010;2022-10-16T01:00:13;11.90;72.30
39655;DHT22;25336;59.944;11.010;2022-10-16T01:02:39;11.80;72.00
39655;DHT22;25336;59.944;11.010;2022-10-16T01:05:05;11.80;72.00
39655;DHT22;25336;59.944;11.010;2022-10-16T01:13:06;11.80;71.90
39655;DHT22;25336;59.944;11.010;2022-10-16T01:15:49;11.70;71.80
39655;DHT22;25336;59.944;11.010;2022-10-16T01:18:49;12.00;72.00
39655;DHT22;25336;59.944;11.010;2022-10-16T01:21:22;11.70;71.50
39655;DHT22;25336;59.944;11.010;2022-10-16T01:27:36;11.60;71.50
39655;DHT22;25336;59.944;11.010;2022-10-16T01:33:20;11.50;71.40
39655;DHT22;25336;59.944;11.010;2022-10-16T01:35:37;11.50;71.40
39655;DHT22;25336;59.944;11.010;2022-10-16T01:40:46;11.40;71.10
39655;DHT22;25336;59.944;11.010;2022-10-16T01:43:16;11.30;71.10
39655;DHT22;25336;59.944;11.010;2022-10-16T01:45:44;11.20;71.00
39655;DHT22;25336;59.944;11.010;2022-10-16T01:48:13;11.10;70.90
39655;DHT22;25336;59.944;11.010;2022-10-16T01:50:43;11.10;71.10
39655;DHT22;25336;59.944;11.010;2022-10-16T01:53:12;11.00;71.10
39655;DHT22;25336;59.944;11.010;2022-10-16T01:55:42;11.80;71.70
39655;DHT22;25336;59.944;11.010;2022-10-16T01:58:12;10.90;71.10
39655;DHT22;25336;59.944;11.010;2022-10-16T02:00:39;10.90;71.20
39655;DHT22;25336;59.944;11.010;2022-10-16T02:03:07;12.40;72.10
39655;DHT22;25336;59.944;11.010;2022-10-16T02:05:36;12.30;72.20
39655;DHT22;25336;59.944;11.010;2022-10-16T02:08:03;10.70;71.20
39655;DHT22;25336;59.944;11.010;2022-10-16T02:10:29;10.70;71.40
39655;DHT22;25336;59.944;11.010;2022-10-16T02:13:09;10.60;71.50
39655;DHT22;25336;59.944;11.010;2022-10-16T02:15:35;10.60;71.70
39655;DHT22;25336;59.944;11.010;2022-10-16T02:18:03;10.60;71.60
39655;DHT22;25336;59.944;11.010;2022-10-16T02:20:34;10.50;71.60
39655;DHT22;25336;59.944;11.010;2022-10-16T02:23:02;10.50;71.60
39655;DHT22;25336;59.944;11.010;2022-10-16T02:25:35;11.10;71.90
39655;DHT22;25336;59.944;11.010;2022-10-16T02:28:25;10.40;71.50
39655;DHT22;25336;59.944;11.010;2022-10-16T02:31:00;9.60;71.20
39655;DHT22;25336;59.944;11.010;2022-10-16T02:33:27;11.40;72.20
39655;DHT22;25336;59.944;11.010;2022-10-16T02:35:55;10.30;71.70
39655;DHT22;25336;59.944;11.010;2022-10-16T02:38:22;10.20;71.70
39655;DHT22;25336;59.944;11.010;2022-10-16T02:40:48;11.70;72.90
39655;DHT22;25336;59.944;11.010;2022-10-16T02:43:15;10.20;72.10
39655;DHT22;25336;59.944;11.010;2022-10-16T02:45:41;10.80;72.60
39655;DHT22;25336;59.944;11.010;2022-10-16T02:48:07;10.10;72.30
39655;DHT22;25336;59.944;11.010;2022-10-16T02:50:33;10.10;72.30
39655;DHT22;25336;59.944;11.010;2022-10-16T02:52:58;10.10;72.40
39655;DHT22;25336;59.944;11.010;2022-10-16T02:55:24;11.50;73.30
39655;DHT22;25336;59.944;11.010;2022-10-16T02:57:50;10.70;72.70
39655;DHT22;25336;59.944;11.010;2022-10-16T03:00:17;10.10;72.30
39655;DHT22;25336;59.944;11.010;2022-10-16T03:02:42;10.10;72.40
39655;DHT22;25336;59.944;11.010;2022-10-16T03:05:09;11.70;73.30
39655;DHT22;25336;59.944;11.010;2022-10-16T03:07:35;10.00;72.10
39655;DHT22;25336;59.944;11.010;2022-10-16T03:10:00;10.00;72.10
39655;DHT22;25336;59.944;11.010;2022-10-16T03:12:27;10.70;72.50
39655;DHT22;25336;59.944;11.010;2022-10-16T03:14:55;10.90;72.60
39655;DHT22;25336;59.944;11.010;2022-10-16T03:17:20;10.90;72.50
39655;DHT22;25336;59.944;11.010;2022-10-16T03:19:46;10.90;72.40
39655;DHT22;25336;59.944;11.010;2022-10-16T03:22:12;11.10;72.50
39655;DHT22;25336;59.944;11.010;2022-10-16T03:24:37;10.60;72.10
39655;DHT22;25336;59.944;11.010;2022-10-16T03:27:03;9.70;71.60
39655;DHT22;25336;59.944;11.010;2022-10-16T03:29:29;8.50;70.90
39655;DHT22;25336;59.944;11.010;2022-10-16T03:31:56;9.70;71.90
39655;DHT22;25336;59.944;11.010;2022-10-16T03:34:22;9.60;72.20
39655;DHT22;25336;59.944;11.010;2022-10-16T03:36:47;9.60;72.30
39655;DHT22;25336;59.944;11.010;2022-10-16T03:39:13;10.90;73.40
39655;DHT22;25336;59.944;11.010;2022-10-16T03:41:38;10.60;73.30
39655;DHT22;25336;59.944;11.010;2022-10-16T03:44:04;9.80;73.10
39655;DHT22;25336;59.944;11.010;2022-10-16T03:46:30;9.60;73.10
39655;DHT22;25336;59.944;11.010;2022-10-16T03:48:55;9.90;73.50
39655;DHT22;25336;59.944;11.010;2022-10-16T03:51:21;9.60;73.30
39655;DHT22;25336;59.944;11.010;2022-10-16T03:53:47;9.60;73.30
39655;DHT22;25336;59.944;11.010;2022-10-16T03:56:12;9.60;73.30
39655;DHT22;25336;59.944;11.010;2022-10-16T03:58:38;11.10;74.30
39655;DHT22;25336;59.944;11.010;2022-10-16T04:01:04;10.60;74.10
39655;DHT22;25336;59.944;11.010;2022-10-16T04:03:29;10.90;74.20
39655;DHT22;25336;59.944;11.010;2022-10-16T04:05:55;9.60;73.40
39655;DHT22;25336;59.944;11.010;2022-10-16T04:08:21;9.60;73.30
39655;DHT22;25336;59.944;11.010;2022-10-16T04:10:47;9.00;72.80
39655;DHT22;25336;59.944;11.010;2022-10-16T04:13:13;10.10;73.60
39655;DHT22;25336;59.944;11.010;2022-10-16T04:15:38;10.90;74.10
39655;DHT22;25336;59.944;11.010;2022-10-16T04:18:04;9.60;73.30
39655;DHT22;25336;59.944;11.010;2022-10-16T04:20:35;9.60;73.30
39655;DHT22;25336;59.944;11.010;2022-10-16T04:23:01;9.80;73.50
39655;DHT22;25336;59.944;11.010;2022-10-16T04:25:26;9.70;73.50
39655;DHT22;25336;59.944;11.010;2022-10-16T04:27:53;11.10;74.40
39655;DHT22;25336;59.944;11.010;2022-10-16T04:30:20;9.60;73.40
39655;DHT22;25336;59.944;11.010;2022-10-16T04:32:52;9.60;73.50
39655;DHT22;25336;59.944;11.010;2022-10-16T04:35:20;8.60;72.80
39655;DHT22;25336;59.944;11.010;2022-10-16T04:37:46;9.60;73.40
39655;DHT22;25336;59.944;11.010;2022-10-16T04:40:12;9.60;73.50
39655;DHT22;25336;59.944;11.010;2022-10-16T04:42:40;9.60;73.60
39655;DHT22;25336;59.944;11.010;2022-10-16T04:45:08;9.70;73.50
39655;DHT22;25336;59.944;11.010;2022-10-16T04:47:34;9.50;73.70
39655;DHT22;25336;59.944;11.010;2022-10-16T04:49:59;10.10;74.00
39655;DHT22;25336;59.944;11.010;2022-10-16T04:52:26;10.80;74.70
39655;DHT22;25336;59.944;11.010;2022-10-16T04:54:52;9.50;73.90
39655;DHT22;25336;59.944;11.010;2022-10-16T04:57:19;10.60;74.60
39655;DHT22;25336;59.944;11.010;2022-10-16T04:59:45;9.60;74.00
39655;DHT22;25336;59.944;11.010;2022-10-16T05:02:10;10.40;74.50
39655;DHT22;25336;59.944;11.010;2022-10-16T05:04:36;9.60;73.90
39655;DHT22;25336;59.944;11.010;2022-10-16T05:07:01;9.60;74.00
39655;DHT22;25336;59.944;11.010;2022-10-16T05:09:27;9.60;73.90
39655;DHT22;25336;59.944;11.010;2022-10-16T05:11:55;9.70;74.00
39655;DHT22;25336;59.944;11.010;2022-10-16T05:14:21;10.30;74.40
39655;DHT22;25336;59.944;11.010;2022-10-16T05:16:46;9.70;74.00
39655;DHT22;25336;59.944;11.010;2022-10-16T05:19:13;9.70;74.00
39655;DHT22;25336;59.944;11.010;2022-10-16T05:21:39;11.00;74.70
39655;DHT22;25336;59.944;11.010;2022-10-16T05:24:05;9.80;73.90
39655;DHT22;25336;59.944;11.010;2022-10-16T05:26:33;11.00;74.50
39655;DHT22;25336;59.944;11.010;2022-10-16T05:28:59;9.80;73.80
39655;DHT22;25336;59.944;11.010;2022-10-16T05:31:27;9.80;73.80
39655;DHT22;25336;59.944;11.010;2022-10-16T05:34:02;11.20;74.60
39655;DHT22;25336;59.944;11.010;2022-10-16T05:36:28;9.80;73.70
39655;DHT22;25336;59.944;11.010;2022-10-16T05:38:53;9.80;73.60
39655;DHT22;25336;59.944;11.010;2022-10-16T05:41:21;9.80;73.70
39655;DHT22;25336;59.944;11.010;2022-10-16T05:43:49;9.80;73.70
39655;DHT22;25336;59.944;11.010;2022-10-16T05:46:17;9.80;73.80
39655;DHT22;25336;59.944;11.010;2022-10-16T05:48:43;11.00;74.60
39655;DHT22;25336;59.944;11.010;2022-10-16T05:51:13;9.80;73.80
39655;DHT22;25336;59.944;11.010;2022-10-16T05:53:42;10.30;74.10
39655;DHT22;25336;59.944;11.010;2022-10-16T05:56:10;11.50;74.90
39655;DHT22;25336;59.944;11.010;2022-10-16T05:58:38;10.40;74.20
39655;DHT22;25336;59.944;11.010;2022-10-16T06:01:16;9.90;73.80
39655;DHT22;25336;59.944;11.010;2022-10-16T06:03:42;11.00;74.60
39655;DHT22;25336;59.944;11.010;2022-10-16T06:06:17;10.00;73.90
39655;DHT22;25336;59.944;11.010;2022-10-16T06:08:46;10.40;74.30
39655;DHT22;25336;59.944;11.010;2022-10-16T06:11:18;10.30;74.10
39655;DHT22;25336;59.944;11.010;2022-10-16T06:13:44;11.00;74.60
39655;DHT22;25336;59.944;11.010;2022-10-16T06:16:12;10.00;73.90
39655;DHT22;25336;59.944;11.010;2022-10-16T06:18:38;10.10;73.90
39655;DHT22;25336;59.944;11.010;2022-10-16T06:21:16;10.10;73.90
39655;DHT22;25336;59.944;11.010;2022-10-16T06:23:42;10.10;74.00
39655;DHT22;25336;59.944;11.010;2022-10-16T06:26:10;10.10;74.00
39655;DHT22;25336;59.944;11.010;2022-10-16T06:28:36;10.10;74.00
39655;DHT22;25336;59.944;11.010;2022-10-16T06:31:03;10.20;74.10
39655;DHT22;25336;59.944;11.010;2022-10-16T06:33:30;11.00;74.50
39655;DHT22;25336;59.944;11.010;2022-10-16T06:36:11;10.90;74.40
39655;DHT22;25336;59.944;11.010;2022-10-16T06:38:38;10.20;74.20
39655;DHT22;25336;59.944;11.010;2022-10-16T06:41:05;10.20;74.00
39655;DHT22;25336;59.944;11.010;2022-10-16T06:43:31;10.20;74.10
39655;DHT22;25336;59.944;11.010;2022-10-16T06:45:58;10.30;74.30
39655;DHT22;25336;59.944;11.010;2022-10-16T06:48:26;10.30;74.30
39655;DHT22;25336;59.944;11.010;2022-10-16T06:53:29;10.30;74.10
39655;DHT22;25336;59.944;11.010;2022-10-16T06:55:55;11.70;74.80
39655;DHT22;25336;59.944;11.010;2022-10-16T06:58:21;10.50;73.90
39655;DHT22;25336;59.944;11.010;2022-10-16T07:00:46;10.40;73.90
39655;DHT22;25336;59.944;11.010;2022-10-16T07:03:12;10.80;74.40
39655;DHT22;25336;59.944;11.010;2022-10-16T07:05:42;12.10;75.50
39655;DHT22;25336;59.944;11.010;2022-10-16T07:08:08;10.40;74.30
39655;DHT22;25336;59.944;11.010;2022-10-16T07:10:34;10.50;74.40
39655;DHT22;25336;59.944;11.010;2022-10-16T07:13:02;10.60;74.50
39655;DHT22;25336;59.944;11.010;2022-10-16T07:15:28;12.00;75.50
39655;DHT22;25336;59.944;11.010;2022-10-16T07:17:53;11.40;75.30
39655;DHT22;25336;59.944;11.010;2022-10-16T07:20:20;11.70;75.60
39655;DHT22;25336;59.944;11.010;2022-10-16T07:22:48;11.20;75.40
39655;DHT22;25336;59.944;11.010;2022-10-16T07:25:16;12.30;76.30
39655;DHT22;25336;59.944;11.010;2022-10-16T07:27:42;9.80;74.70
39655;DHT22;25336;59.944;11.010;2022-10-16T07:30:08;10.80;75.40
39655;DHT22;25336;59.944;11.010;2022-10-16T07:32:34;10.90;75.40
39655;DHT22;25336;59.944;11.010;2022-10-16T07:35:09;10.90;75.20
39655;DHT22;25336;59.944;11.010;2022-10-16T07:37:37;11.00;75.00
39655;DHT22;25336;59.944;11.010;2022-10-16T07:40:02;11.50;75.00
39655;DHT22;25336;59.944;11.010;2022-10-16T07:42:28;11.10;74.50
39655;DHT22;25336;59.944;11.010;2022-10-16T07:44:54;11.10;74.30
39655;DHT22;25336;59.944;11.010;2022-10-16T07:47:19;11.10;74.10
39655;DHT22;25336;59.944;11.010;2022-10-16T07:49:46;11.00;74.80
39655;DHT22;25336;59.944;11.010;2022-10-16T07:52:11;11.10;74.00
39655;DHT22;25336;59.944;11.010;2022-10-16T07:54:37;11.10;74.20
39655;DHT22;25336;59.944;11.010;2022-10-16T07:57:02;12.60;75.10
39655;DHT22;25336;59.944;11.010;2022-10-16T07:59:28;11.10;73.80
39655;DHT22;25336;59.944;11.010;2022-10-16T08:01:54;11.20;73.60
39655;DHT22;25336;59.944;11.010;2022-10-16T08:04:19;11.20;73.50
39655;DHT22;25336;59.944;11.010;2022-10-16T08:06:45;11.20;73.50
39655;DHT22;25336;59.944;11.010;2022-10-16T08:09:10;11.20;73.50
39655;DHT22;25336;59.944;11.010;2022-10-16T08:11:36;11.20;73.50
39655;DHT22;25336;59.944;11.010;2022-10-16T08:14:02;12.00;74.10
39655;DHT22;25336;59.944;11.010;2022-10-16T08:16:27;11.10;73.60
39655;DHT22;25336;59.944;11.010;2022-10-16T08:18:53;11.10;73.50
39655;DHT22;25336;59.944;11.010;2022-10-16T08:21:21;12.30;74.40
39655;DHT22;25336;59.944;11.010;2022-10-16T08:23:48;11.10;73.70
39655;DHT22;25336;59.944;11.010;2022-10-16T08:26:14;11.10;73.80
39655;DHT22;25336;59.944;11.010;2022-10-16T08:28:40;11.70;74.20
39655;DHT22;25336;59.944;11.010;2022-10-16T08:31:14;11.10;74.10
39655;DHT22;25336;59.944;11.010;2022-10-16T08:33:42;11.10;74.10
39655;DHT22;25336;59.944;11.010;2022-10-16T08:36:10;11.10;74.30
39655;DHT22;25336;59.944;11.010;2022-10-16T08:38:37;11.20;74.60
39655;DHT22;25336;59.944;11.010;2022-10-16T08:49:41;11.20;75.10
39655;DHT22;25336;59.944;11.010;2022-10-16T08:52:12;11.50;75.00
39655;DHT22;25336;59.944;11.010;2022-10-16T08:54:42;11.30;75.10
39655;DHT22;25336;59.944;11.010;2022-10-16T08:57:17;12.30;76.30
39655;DHT22;25336;59.944;11.010;2022-10-16T08:59:44;11.30;74.80
39655;DHT22;25336;59.944;11.010;2022-10-16T09:13:30;11.30;75.40
39655;DHT22;25336;59.944;11.010;2022-10-16T09:16:28;11.30;75.30
39655;DHT22;25336;59.944;11.010;2022-10-16T09:21:35;11.40;75.50
39655;DHT22;25336;59.944;11.010;2022-10-16T09:26:37;11.50;75.70
39655;DHT22;25336;59.944;11.010;2022-10-16T09:29:03;11.40;75.50
39655;DHT22;25336;59.944;11.010;2022-10-16T09:31:28;11.50;75.50
39655;DHT22;25336;59.944;11.010;2022-10-16T09:34:04;11.50;75.60
39655;DHT22;25336;59.944;11.010;2022-10-16T09:36:38;11.50;75.80
39655;DHT22;25336;59.944;11.010;2022-10-16T09:39:09;10.90;75.30
39655;DHT22;25336;59.944;11.010;2022-10-16T09:41:38;11.60;76.00
39655;DHT22;25336;59.944;11.010;2022-10-16T09:44:13;12.00;76.40
39655;DHT22;25336;59.944;11.010;2022-10-16T09:46:40;11.70;76.30
39655;DHT22;25336;59.944;11.010;2022-10-16T09:49:24;11.70;76.10
39655;DHT22;25336;59.944;11.010;2022-10-16T09:51:51;11.70;76.40
39655;DHT22;25336;59.944;11.010;2022-10-16T09:54:19;12.30;76.40
39655;DHT22;25336;59.944;11.010;2022-10-16T09:56:46;11.80;75.90
39655;DHT22;25336;59.944;11.010;2022-10-16T09:59:16;12.30;76.00
39655;DHT22;25336;59.944;11.010;2022-10-16T10:01:49;11.80;75.50
39655;DHT22;25336;59.944;11.010;2022-10-16T10:04:16;11.80;75.30
39655;DHT22;25336;59.944;11.010;2022-10-16T10:06:47;12.20;75.50
39655;DHT22;25336;59.944;11.010;2022-10-16T10:12:00;11.70;76.00
39655;DHT22;25336;59.944;11.010;2022-10-16T10:14:43;11.80;75.30
39655;DHT22;25336;59.944;11.010;2022-10-16T10:17:22;11.80;75.30
39655;DHT22;25336;59.944;11.010;2022-10-16T10:22:39;11.80;76.30
39655;DHT22;25336;59.944;11.010;2022-10-16T10:25:19;11.80;76.20
39655;DHT22;25336;59.944;11.010;2022-10-16T10:30:48;11.90;75.90
39655;DHT22;25336;59.944;11.010;2022-10-16T10:33:57;11.90;76.10
39655;DHT22;25336;59.944;11.010;2022-10-16T10:36:41;11.90;76.00
39655;DHT22;25336;59.944;11.010;2022-10-16T10:39:51;12.40;76.20
39655;DHT22;25336;59.944;11.010;2022-10-16T10:49:55;12.10;75.30
39655;DHT22;25336;59.944;11.010;2022-10-16T10:52:42;12.00;75.40
39655;DHT22;25336;59.944;11.010;2022-10-16T10:55:47;12.00;75.30
39655;DHT22;25336;59.944;11.010;2022-10-16T10:58:41;12.00;75.50
39655;DHT22;25336;59.944;11.010;2022-10-16T11:01:16;12.00;75.40
39655;DHT22;25336;59.944;11.010;2022-10-16T11:09:19;12.00;75.40
39655;DHT22;25336;59.944;11.010;2022-10-16T11:12:00;12.10;75.60
39655;DHT22;25336;59.944;11.010;2022-10-16T11:14:30;12.10;76.10
39655;DHT22;25336;59.944;11.010;2022-10-16T11:20:15;12.30;76.70
39655;DHT22;25336;59.944;11.010;2022-10-16T11:22:50;13.90;77.50
39655;DHT22;25336;59.944;11.010;2022-10-16T11:25:26;12.50;76.30
39655;DHT22;25336;59.944;11.010;2022-10-16T11:31:07;12.60;75.60
39655;DHT22;25336;59.944;11.010;2022-10-16T11:36:23;12.70;75.50
39655;DHT22;25336;59.944;11.010;2022-10-16T11:41:47;12.80;74.20
39655;DHT22;25336;59.944;11.010;2022-10-16T11:47:45;12.80;74.00
39655;DHT22;25336;59.944;11.010;2022-10-16T11:55:52;12.60;73.40
39655;DHT22;25336;59.944;11.010;2022-10-16T12:06:40;12.40;73.40
39655;DHT22;25336;59.944;11.010;2022-10-16T12:09:24;12.50;73.40
39655;DHT22;25336;59.944;11.010;2022-10-16T12:11:51;12.40;73.40
39655;DHT22;25336;59.944;11.010;2022-10-16T12:14:22;12.40;73.40
39655;DHT22;25336;59.944;11.010;2022-10-16T12:17:22;12.30;73.50
39655;DHT22;25336;59.944;11.010;2022-10-16T12:19:59;12.30;73.50
39655;DHT22;25336;59.944;11.010;2022-10-16T12:22:29;12.30;73.40
39655;DHT22;25336;59.944;11.010;2022-10-16T12:24:56;12.20;73.30
39655;DHT22;25336;59.944;11.010;2022-10-16T12:27:40;12.20;73.40
39655;DHT22;25336;59.944;11.010;2022-10-16T12:30:06;12.20;73.50
39655;DHT22;25336;59.944;11.010;2022-10-16T12:32:38;12.20;73.50
39655;DHT22;25336;59.944;11.010;2022-10-16T12:35:16;12.10;73.40
39655;DHT22;25336;59.944;11.010;2022-10-16T12:37:42;12.10;73.40
39655;DHT22;25336;59.944;11.010;2022-10-16T12:40:15;12.10;73.40
39655;DHT22;25336;59.944;11.010;2022-10-16T12:42:42;12.00;73.30
39655;DHT22;25336;59.944;11.010;2022-10-16T12:45:33;12.00;73.30
39655;DHT22;25336;59.944;11.010;2022-10-16T12:48:04;12.00;73.30
39655;DHT22;25336;59.944;11.010;2022-10-16T12:50:36;12.00;73.30
39655;DHT22;25336;59.944;11.010;2022-10-16T12:53:16;11.90;73.20
39655;DHT22;25336;59.944;11.010;2022-10-16T12:59:04;11.90;73.00
39655;DHT22;25336;59.944;11.010;2022-10-16T13:04:34;11.90;73.20
39655;DHT22;25336;59.944;11.010;2022-10-16T13:18:54;11.80;73.30
39655;DHT22;25336;59.944;11.010;2022-10-16T13:21:35;11.80;73.20
39655;DHT22;25336;59.944;11.010;2022-10-16T13:27:01;11.80;73.50
39655;DHT22;25336;59.944;11.010;2022-10-16T13:29:31;11.80;73.50
39655;DHT22;25336;59.944;11.010;2022-10-16T13:31:58;11.90;73.60
39655;DHT22;25336;59.944;11.010;2022-10-16T13:34:25;11.30;73.50
39655;DHT22;25336;59.944;11.010;2022-10-16T13:36:52;11.90;74.10
39655;DHT22;25336;59.944;11.010;2022-10-16T13:39:29;11.90;74.10
39655;DHT22;25336;59.944;11.010;2022-10-16T13:42:09;12.00;74.20
39655;DHT22;25336;59.944;11.010;2022-10-16T13:44:49;12.00;74.20
39655;DHT22;25336;59.944;11.010;2022-10-16T13:47:27;12.10;74.00
39655;DHT22;25336;59.944;11.010;2022-10-16T13:50:11;12.10;73.90
39655;DHT22;25336;59.944;11.010;2022-10-16T13:52:37;12.10;73.80
39655;DHT22;25336;59.944;11.010;2022-10-16T13:55:15;12.20;73.80
39655;DHT22;25336;59.944;11.010;2022-10-16T13:57:41;12.20;73.70
39655;DHT22;25336;59.944;11.010;2022-10-16T14:00:25;12.20;73.50
39655;DHT22;25336;59.944;11.010;2022-10-16T14:03:13;12.20;73.40
39655;DHT22;25336;59.944;11.010;2022-10-16T14:05:47;12.40;73.30
39655;DHT22;25336;59.944;11.010;2022-10-16T14:08:13;11.90;72.90
39655;DHT22;25336;59.944;11.010;2022-10-16T14:10:39;12.20;73.00
39655;DHT22;25336;59.944;11.010;2022-10-16T14:13:07;12.20;73.00
39655;DHT22;25336;59.944;11.010;2022-10-16T14:15:35;12.20;73.00
39655;DHT22;25336;59.944;11.010;2022-10-16T14:18:01;12.20;73.00
39655;DHT22;25336;59.944;11.010;2022-10-16T14:20:32;12.20;72.90
39655;DHT22;25336;59.944;11.010;2022-10-16T14:26:11;12.20;72.50
39655;DHT22;25336;59.944;11.010;2022-10-16T14:28:41;12.10;72.50
39655;DHT22;25336;59.944;11.010;2022-10-16T14:33:53;13.30;73.10
39655;DHT22;25336;59.944;11.010;2022-10-16T14:36:19;12.10;72.50
39655;DHT22;25336;59.944;11.010;2022-10-16T14:39:05;12.10;72.50
39655;DHT22;25336;59.944;11.010;2022-10-16T14:41:33;12.10;72.70
39655;DHT22;25336;59.944;11.010;2022-10-16T14:44:02;12.00;72.60
39655;DHT22;25336;59.944;11.010;2022-10-16T14:46:35;12.00;72.60
39655;DHT22;25336;59.944;11.010;2022-10-16T14:51:40;12.20;72.70
39655;DHT22;25336;59.944;11.010;2022-10-16T14:54:08;12.70;73.10
39655;DHT22;25336;59.944;11.010;2022-10-16T14:56:50;11.90;72.60
39655;DHT22;25336;59.944;11.010;2022-10-16T15:01:45;11.80;72.60
39655;DHT22;25336;59.944;11.010;2022-10-16T15:04:12;11.80;72.50
39655;DHT22;25336;59.944;11.010;2022-10-16T15:06:39;11.80;72.60
39655;DHT22;25336;59.944;11.010;2022-10-16T15:09:05;12.50;73.10
39655;DHT22;25336;59.944;11.010;2022-10-16T15:11:32;11.60;72.50
39655;DHT22;25336;59.944;11.010;2022-10-16T15:13:58;12.70;73.10
39655;DHT22;25336;59.944;11.010;2022-10-16T15:16:24;11.70;72.40
39655;DHT22;25336;59.944;11.010;2022-10-16T15:18:49;11.60;72.30
39655;DHT22;25336;59.944;11.010;2022-10-16T15:21:30;11.60;72.30
39655;DHT22;25336;59.944;11.010;2022-10-16T15:23:57;12.30;73.00
39655;DHT22;25336;59.944;11.010;2022-10-16T15:26:25;11.50;72.50
39655;DHT22;25336;59.944;11.010;2022-10-16T15:28:51;11.50;72.70
39655;DHT22;25336;59.944;11.010;2022-10-16T15:31:17;11.50;72.80
39655;DHT22;25336;59.944;11.010;2022-10-16T15:33:43;11.40;72.80
39655;DHT22;25336;59.944;11.010;2022-10-16T15:36:09;12.80;73.80
39655;DHT22;25336;59.944;11.010;2022-10-16T15:38:35;11.40;73.00
39655;DHT22;25336;59.944;11.010;2022-10-16T15:41:01;11.40;73.00
39655;DHT22;25336;59.944;11.010;2022-10-16T15:43:27;11.40;73.00
39655;DHT22;25336;59.944;11.010;2022-10-16T15:46:05;11.30;72.80
39655;DHT22;25336;59.944;11.010;2022-10-16T15:48:32;11.30;72.90
39655;DHT22;25336;59.944;11.010;2022-10-16T15:50:58;11.30;72.80
39655;DHT22;25336;59.944;11.010;2022-10-16T15:53:24;12.50;73.40
39655;DHT22;25336;59.944;11.010;2022-10-16T15:55:49;11.30;72.60
39655;DHT22;25336;59.944;11.010;2022-10-16T15:58:15;11.20;72.50
39655;DHT22;25336;59.944;11.010;2022-10-16T16:00:41;11.20;72.50
39655;DHT22;25336;59.944;11.010;2022-10-16T16:03:06;11.40;72.50
39655;DHT22;25336;59.944;11.010;2022-10-16T16:05:32;11.20;72.50
39655;DHT22;25336;59.944;11.010;2022-10-16T16:07:58;11.10;72.50
39655;DHT22;25336;59.944;11.010;2022-10-16T16:10:24;11.00;72.50
39655;DHT22;25336;59.944;11.010;2022-10-16T16:12:50;11.00;72.50
39655;DHT22;25336;59.944;11.010;2022-10-16T16:15:20;11.00;72.70
39655;DHT22;25336;59.944;11.010;2022-10-16T16:17:46;11.10;72.80
39655;DHT22;25336;59.944;11.010;2022-10-16T16:20:12;11.90;74.10
39655;DHT22;25336;59.944;11.010;2022-10-16T16:22:38;10.80;72.80
39655;DHT22;25336;59.944;11.010;2022-10-16T16:25:06;10.70;72.90
39655;DHT22;25336;59.944;11.010;2022-10-16T16:27:32;10.70;73.20
39655;DHT22;25336;59.944;11.010;2022-10-16T16:30:01;11.30;73.70
39655;DHT22;25336;59.944;11.010;2022-10-16T16:32:29;10.60;73.40
39655;DHT22;25336;59.944;11.010;2022-10-16T16:34:57;12.00;74.30
39655;DHT22;25336;59.944;11.010;2022-10-16T16:37:22;10.60;73.50
39655;DHT22;25336;59.944;11.010;2022-10-16T16:39:48;10.50;73.50
39655;DHT22;25336;59.944;11.010;2022-10-16T16:42:13;11.70;74.30
39655;DHT22;25336;59.944;11.010;2022-10-16T16:44:39;10.60;73.70
39655;DHT22;25336;59.944;11.010;2022-10-16T16:47:08;10.40;73.70
39655;DHT22;25336;59.944;11.010;2022-10-16T16:49:34;10.30;73.70
39655;DHT22;25336;59.944;11.010;2022-10-16T16:51:59;10.30;73.90
39655;DHT22;25336;59.944;11.010;2022-10-16T16:54:25;11.00;74.30
39655;DHT22;25336;59.944;11.010;2022-10-16T16:56:51;10.30;73.90
39655;DHT22;25336;59.944;11.010;2022-10-16T16:59:19;10.20;73.90
39655;DHT22;25336;59.944;11.010;2022-10-16T17:01:46;10.20;73.90
39655;DHT22;25336;59.944;11.010;2022-10-16T17:04:11;10.20;73.90
39655;DHT22;25336;59.944;11.010;2022-10-16T17:06:38;10.60;74.20
39655;DHT22;25336;59.944;11.010;2022-10-16T17:09:05;10.20;73.90
39655;DHT22;25336;59.944;11.010;2022-10-16T17:11:32;10.40;74.20
39655;DHT22;25336;59.944;11.010;2022-10-16T17:13:59;10.10;74.10
39655;DHT22;25336;59.944;11.010;2022-10-16T17:16:32;10.10;74.20
39655;DHT22;25336;59.944;11.010;2022-10-16T17:19:06;10.00;74.40
39655;DHT22;25336;59.944;11.010;2022-10-16T17:21:33;10.00;74.50
39655;DHT22;25336;59.944;11.010;2022-10-16T17:23:59;10.00;74.50
39655;DHT22;25336;59.944;11.010;2022-10-16T17:26:26;11.60;75.80
39655;DHT22;25336;59.944;11.010;2022-10-16T17:28:54;11.20;75.60
39655;DHT22;25336;59.944;11.010;2022-10-16T17:31:23;9.90;75.10
39655;DHT22;25336;59.944;11.010;2022-10-16T17:33:49;10.30;75.50
39655;DHT22;25336;59.944;11.010;2022-10-16T17:36:16;9.90;75.40
39655;DHT22;25336;59.944;11.010;2022-10-16T17:38:42;9.90;75.80